Aviation Digital Data Service (ADDS)

Output produced by METARs form (0753 UTC 18 January 2017)
found at http://aviationweather.gov/adds/metars/
 
KCRG 180527Z 1806/1906 00000KT 6SM BR FEW004 BKN250 
     TEMPO 1808/1812 2SM BR BKN004 
     FM181400 24005KT P6SM BKN250 
     FM181700 27008KT P6SM SCT040 BKN250